createdAt,value
2022-08-05T00:01:35.620Z,70.55
2022-08-05T00:04:16.536Z,71.41
2022-08-05T00:06:44.660Z,70.22
2022-08-05T00:09:19.723Z,72.91
2022-08-05T00:11:49.313Z,73.40
2022-08-05T00:14:27.579Z,73.85
2022-08-05T00:16:57.766Z,73.47
2022-08-05T00:19:33.374Z,73.21
2022-08-05T00:22:02.435Z,74.92
2022-08-05T00:24:31.916Z,77.35
2022-08-05T00:27:00.497Z,76.81
2022-08-05T00:29:37.776Z,77.34
2022-08-05T00:32:13.013Z,78.36
2022-08-05T00:35:03.438Z,79.17
2022-08-05T00:37:35.519Z,80.22
2022-08-05T00:40:27.315Z,76.95
2022-08-05T00:42:57.650Z,79.90
2022-08-05T00:45:38.015Z,78.51
2022-08-05T00:48:08.138Z,79.40
2022-08-05T00:50:37.717Z,80.52
2022-08-05T00:53:09.760Z,79.79
2022-08-05T00:55:55.347Z,78.27
2022-08-05T00:58:27.205Z,81.53
2022-08-05T01:00:55.622Z,86.07
2022-08-05T01:03:24.390Z,86.76
2022-08-05T01:05:59.345Z,87.13
2022-08-05T01:08:42.111Z,86.24
2022-08-05T01:11:22.370Z,88.33
2022-08-05T01:14:08.432Z,88.15
2022-08-05T01:16:44.279Z,85.92
2022-08-05T01:19:36.566Z,85.75
2022-08-05T01:22:27.919Z,86.74
2022-08-05T01:25:17.473Z,87.58
2022-08-05T01:28:01.041Z,89.26
2022-08-05T01:30:34.080Z,89.41
2022-08-05T01:33:08.376Z,89.88
2022-08-05T01:35:50.780Z,91.11
2022-08-05T01:38:27.101Z,91.04
2022-08-05T01:41:01.231Z,92.38
2022-08-05T01:43:33.229Z,92.82
2022-08-05T01:46:07.317Z,92.96
2022-08-05T01:48:49.647Z,94.89
2022-08-05T01:51:19.388Z,94.84
2022-08-05T01:53:58.004Z,94.26
2022-08-05T01:58:12.153Z,94.45
2022-08-05T01:59:24.453Z,94.29
2022-08-05T02:01:57.643Z,96.60
2022-08-05T02:04:30.008Z,97.06
2022-08-05T02:06:59.990Z,100.00
2022-08-05T02:09:31.941Z,98.65
2022-08-05T02:12:06.312Z,100.00
2022-08-05T02:14:47.825Z,100.00
2022-08-05T02:18:28.292Z,100.00
2022-08-05T02:20:20.523Z,100.00
2022-08-05T02:22:56.684Z,100.00
2022-08-05T02:25:33.415Z,100.00
2022-08-05T02:28:18.975Z,100.00
2022-08-05T02:31:01.935Z,100.00
2022-08-05T02:33:38.916Z,100.00
2022-08-05T02:36:13.721Z,100.00
2022-08-05T02:38:52.733Z,100.00
2022-08-05T02:41:23.362Z,100.00
2022-08-05T02:44:06.200Z,100.00
2022-08-05T02:46:58.969Z,100.00
2022-08-05T02:49:36.905Z,100.00
2022-08-05T02:52:09.283Z,100.00
2022-08-05T02:54:41.171Z,100.00
2022-08-05T02:58:09.459Z,100.00
2022-08-05T03:00:02.806Z,100.00
2022-08-05T03:02:38.016Z,100.00
2022-08-05T03:05:10.251Z,100.00
2022-08-05T03:08:01.930Z,100.00
2022-08-05T03:10:29.013Z,100.00
2022-08-05T03:15:24.560Z,100.00
2022-08-05T03:17:57.608Z,100.00
2022-08-05T03:20:26.604Z,100.00
2022-08-05T03:22:57.124Z,100.00
2022-08-05T03:25:33.904Z,100.00
2022-08-05T03:28:18.716Z,100.00
2022-08-05T03:30:47.895Z,100.00
2022-08-05T03:33:17.900Z,100.00
2022-08-05T03:35:46.807Z,100.00
2022-08-05T03:38:15.599Z,100.00
2022-08-05T03:40:45.332Z,100.00
2022-08-05T03:44:08.201Z,100.00
2022-08-05T03:46:05.293Z,100.00
2022-08-05T03:48:38.066Z,100.00
2022-08-05T03:52:50.354Z,100.00
2022-08-05T03:55:50.981Z,93.05
2022-08-05T03:56:58.978Z,85.36
2022-08-05T03:59:47.611Z,76.20
2022-08-05T04:02:38.934Z,67.63
2022-08-05T04:05:13.751Z,64.02
2022-08-05T04:07:58.103Z,58.39
2022-08-05T04:10:31.993Z,54.13
2022-08-05T04:13:06.505Z,55.43
2022-08-05T04:15:36.056Z,53.09
2022-08-05T04:18:06.682Z,49.63
2022-08-05T04:20:37.303Z,47.76
2022-08-05T04:23:05.726Z,45.10
2022-08-05T04:25:57.853Z,43.60
2022-08-05T04:28:31.715Z,41.70
2022-08-05T04:31:01.034Z,40.47
2022-08-05T04:33:54.811Z,38.96
2022-08-05T04:36:46.089Z,37.74
2022-08-05T04:39:08.886Z,36.52
2022-08-05T04:41:38.718Z,35.52
2022-08-05T04:44:09.056Z,34.26
2022-08-05T04:46:38.116Z,34.14
2022-08-05T04:49:12.315Z,33.88
2022-08-05T04:51:44.513Z,33.88
2022-08-05T04:54:14.872Z,32.67
2022-08-05T04:56:43.634Z,31.83
2022-08-05T04:59:21.755Z,30.89
2022-08-05T05:02:35.231Z,31.16
2022-08-05T05:04:43.861Z,30.69
2022-08-05T05:07:17.716Z,29.86
2022-08-05T05:09:46.111Z,28.35
2022-08-05T05:12:14.906Z,29.75
2022-08-05T05:14:50.698Z,28.96
2022-08-05T05:17:23.891Z,28.23
2022-08-05T05:19:56.461Z,26.62
2022-08-05T05:22:26.999Z,26.92
2022-08-05T05:24:57.351Z,27.10
2022-08-05T05:27:44.309Z,27.27
2022-08-05T05:30:15.682Z,26.00
2022-08-05T05:33:00.735Z,25.45
2022-08-05T05:35:37.599Z,25.58
2022-08-05T05:38:09.388Z,24.86
2022-08-05T05:40:49.730Z,24.76
2022-08-05T05:43:27.472Z,26.33
2022-08-05T05:46:13.785Z,24.43
2022-08-05T05:48:44.693Z,25.39
2022-08-05T05:51:20.202Z,24.73
2022-08-05T05:53:58.042Z,24.70
2022-08-05T05:56:32.182Z,24.46
2022-08-05T05:59:05.283Z,24.48
2022-08-05T06:01:37.426Z,24.88
2022-08-05T06:04:08.302Z,25.99
2022-08-05T06:06:41.853Z,26.66
2022-08-05T06:09:17.322Z,26.01
2022-08-05T06:12:01.658Z,26.38
2022-08-05T06:14:31.106Z,26.16
2022-08-05T06:17:02.227Z,26.61
2022-08-05T06:19:56.637Z,27.38
2022-08-05T06:22:30.487Z,27.03
2022-08-05T06:25:25.118Z,26.74
2022-08-05T06:28:10.783Z,26.28
2022-08-05T06:30:40.196Z,27.57
2022-08-05T06:33:10.032Z,27.50
2022-08-05T06:36:07.318Z,27.74
2022-08-05T06:38:36.512Z,27.27
2022-08-05T06:41:07.863Z,28.20
2022-08-05T06:43:58.072Z,27.75
2022-08-05T06:46:30.104Z,29.70
2022-08-05T06:49:00.789Z,28.10
2022-08-05T06:51:30.891Z,28.57
2022-08-05T06:54:00.141Z,28.12
2022-08-05T06:56:34.964Z,28.09
2022-08-05T06:59:03.788Z,29.20
2022-08-05T07:01:36.964Z,29.07
2022-08-05T07:04:05.382Z,28.58
2022-08-05T07:06:33.464Z,28.74
2022-08-05T07:09:05.897Z,29.54
2022-08-05T07:11:37.063Z,29.46
2022-08-05T07:14:28.821Z,29.98
2022-08-05T07:18:01.493Z,29.33
2022-08-05T07:22:38.708Z,30.47
2022-08-05T07:25:22.923Z,30.23
2022-08-05T07:28:03.852Z,29.69
2022-08-05T07:30:39.015Z,30.78
2022-08-05T07:33:15.610Z,30.42
2022-08-05T07:36:02.373Z,30.50
2022-08-05T07:38:35.387Z,30.99
2022-08-05T07:41:34.959Z,30.98
2022-08-05T07:44:04.865Z,30.19
2022-08-05T07:46:34.602Z,30.76
2022-08-05T07:49:07.749Z,31.16
2022-08-05T07:51:40.896Z,31.87
2022-08-05T07:54:18.615Z,30.43
2022-08-05T07:57:02.477Z,30.99
2022-08-05T07:59:40.167Z,31.34
2022-08-05T08:02:16.660Z,31.88
2022-08-05T08:04:46.801Z,30.90
2022-08-05T08:07:15.550Z,31.33
2022-08-05T08:09:43.905Z,32.24
2022-08-05T08:12:37.491Z,31.87
2022-08-05T08:15:04.298Z,31.96
2022-08-05T08:17:33.284Z,32.68
2022-08-05T08:20:22.499Z,33.87
2022-08-05T08:22:54.239Z,32.56
2022-08-05T08:25:26.861Z,33.26
2022-08-05T08:28:18.268Z,32.52
2022-08-05T08:30:49.952Z,32.36
2022-08-05T08:33:19.179Z,31.88
2022-08-05T08:35:52.993Z,31.98
2022-08-05T08:38:32.282Z,31.48
2022-08-05T08:41:09.385Z,32.96
2022-08-05T08:45:20.172Z,32.06
2022-08-05T08:46:30.999Z,31.22
2022-08-05T08:49:09.597Z,30.53
2022-08-05T08:52:05.786Z,31.45
2022-08-05T08:54:38.888Z,32.24
2022-08-05T08:57:11.853Z,31.02
2022-08-05T08:59:47.021Z,30.80
2022-08-05T09:02:20.192Z,31.22
2022-08-05T09:05:15.974Z,32.46
2022-08-05T09:07:39.870Z,32.20
2022-08-05T09:10:27.749Z,32.58
2022-08-05T09:13:04.966Z,32.87
2022-08-05T09:15:37.085Z,32.33
2022-08-05T09:18:09.970Z,32.69
2022-08-05T09:20:44.534Z,32.27
2022-08-05T09:23:19.873Z,32.25
2022-08-05T09:26:00.858Z,31.94
2022-08-05T09:28:34.307Z,31.76
2022-08-05T09:32:38.726Z,32.20
2022-08-05T09:33:58.773Z,31.87
2022-08-05T09:36:45.636Z,31.65
2022-08-05T09:39:39.368Z,30.63
2022-08-05T09:42:17.459Z,31.10
2022-08-05T09:44:56.819Z,31.66
2022-08-05T09:47:48.379Z,30.52
2022-08-05T09:50:38.670Z,31.13
2022-08-05T09:53:09.097Z,32.10
2022-08-05T09:55:57.918Z,30.76
2022-08-05T09:58:29.323Z,31.06
2022-08-05T10:01:01.755Z,31.19
2022-08-05T10:03:59.557Z,30.75
2022-08-05T10:06:31.091Z,30.42
2022-08-05T10:09:27.314Z,30.95
2022-08-05T10:11:56.287Z,31.25
2022-08-05T10:14:30.293Z,31.15
2022-08-05T10:17:37.840Z,30.75
2022-08-05T10:20:10.104Z,30.77
2022-08-05T10:22:43.191Z,31.13
2022-08-05T10:25:20.335Z,31.67
2022-08-05T10:28:12.887Z,30.56
2022-08-05T10:32:49.350Z,30.64
2022-08-05T10:33:28.896Z,30.62
2022-08-05T10:35:59.781Z,30.08
2022-08-05T10:38:33.293Z,29.85
2022-08-05T10:41:12.358Z,30.22
2022-08-05T10:43:50.381Z,29.36
2022-08-05T10:46:23.777Z,29.86
2022-08-05T10:49:02.754Z,30.23
2022-08-05T10:51:57.721Z,31.43
2022-08-05T10:54:56.335Z,30.71
2022-08-05T10:57:30.833Z,30.63
2022-08-05T11:00:16.394Z,29.27
2022-08-05T11:03:24.777Z,29.31
2022-08-05T11:06:06.219Z,29.18
2022-08-05T11:09:17.336Z,28.77
2022-08-05T11:11:53.435Z,29.42
2022-08-05T11:14:49.503Z,29.38
2022-08-05T11:18:09.480Z,29.36
2022-08-05T11:20:41.835Z,28.96
2022-08-05T11:24:04.750Z,29.02
2022-08-05T11:26:32.619Z,28.80
2022-08-05T11:29:12.102Z,29.30
2022-08-05T11:31:58.023Z,29.50
2022-08-05T11:34:50.737Z,28.43
2022-08-05T11:38:29.936Z,28.56
2022-08-05T11:41:03.489Z,28.10
2022-08-05T11:44:04.574Z,29.19
2022-08-05T11:46:37.477Z,28.87
2022-08-05T11:49:08.005Z,29.06
2022-08-05T11:51:44.115Z,29.57
2022-08-05T11:54:33.600Z,28.42
2022-08-05T11:57:07.972Z,28.51
2022-08-05T11:59:52.441Z,28.81
2022-08-05T12:02:30.952Z,29.57
2022-08-05T12:05:06.549Z,29.46
2022-08-05T12:08:07.374Z,28.93
2022-08-05T12:10:38.660Z,28.48
2022-08-05T12:13:16.565Z,28.31
2022-08-05T12:15:45.368Z,28.73
2022-08-05T12:18:24.215Z,28.07
2022-08-05T12:20:52.776Z,28.81
2022-08-05T12:23:20.932Z,28.31
2022-08-05T12:25:53.827Z,28.69
2022-08-05T12:28:36.695Z,29.19
2022-08-05T12:31:06.221Z,28.47
2022-08-05T12:33:38.490Z,27.95
2022-08-05T12:36:09.274Z,28.83
2022-08-05T12:38:39.470Z,28.91
2022-08-05T12:43:59.917Z,28.11
2022-08-05T12:46:31.415Z,28.37
2022-08-05T12:49:11.988Z,27.79
2022-08-05T12:52:13.619Z,27.71
2022-08-05T12:54:39.865Z,28.30
2022-08-05T12:57:13.011Z,28.67
